createdAt,value
2017-02-05T00:01:18.232Z,993.88
2017-02-05T00:06:15.436Z,993.91
2017-02-05T00:11:11.625Z,993.95
2017-02-05T00:16:08.111Z,993.86
2017-02-05T00:21:04.533Z,993.82
2017-02-05T00:26:00.893Z,993.93
2017-02-05T00:30:57.525Z,993.82
2017-02-05T00:35:53.753Z,993.87
2017-02-05T00:40:50.036Z,993.93
2017-02-05T00:45:46.591Z,993.86
2017-02-05T00:50:42.614Z,993.87
2017-02-05T00:55:38.988Z,993.87
2017-02-05T01:00:35.431Z,993.95
2017-02-05T01:05:31.815Z,993.87
2017-02-05T01:10:28.353Z,993.93
2017-02-05T01:15:24.755Z,993.89
2017-02-05T01:20:20.969Z,993.96
2017-02-05T01:25:17.390Z,994.06
2017-02-05T01:30:13.934Z,994.03
2017-02-05T01:35:10.793Z,994.04
2017-02-05T01:40:06.842Z,994.15
2017-02-05T01:45:03.916Z,994.18
2017-02-05T01:50:00.114Z,994.13
2017-02-05T01:54:56.771Z,994.15
2017-02-05T01:59:53.060Z,994.30
2017-02-05T02:04:49.513Z,994.20
2017-02-05T02:09:45.867Z,994.26
2017-02-05T02:14:41.911Z,994.26
2017-02-05T02:19:39.209Z,994.36
2017-02-05T02:24:35.951Z,994.34
2017-02-05T02:29:32.367Z,994.35
2017-02-05T02:34:28.889Z,994.33
2017-02-05T02:39:25.167Z,994.34
2017-02-05T02:44:21.668Z,994.40
2017-02-05T02:49:17.990Z,994.36
2017-02-05T02:54:14.371Z,994.43
2017-02-05T02:59:10.453Z,994.42
2017-02-05T03:04:06.875Z,994.41
2017-02-05T03:09:03.372Z,994.46
2017-02-05T03:13:59.831Z,994.41
2017-02-05T03:18:56.707Z,994.56
2017-02-05T03:23:53.047Z,994.62
2017-02-05T03:28:49.512Z,994.58
2017-02-05T03:33:45.990Z,994.61
2017-02-05T03:38:42.409Z,994.58
2017-02-05T03:43:38.846Z,994.72
2017-02-05T03:48:36.237Z,994.66
2017-02-05T03:53:32.818Z,994.77
2017-02-05T03:58:29.448Z,994.69
2017-02-05T04:03:25.670Z,994.67
2017-02-05T04:08:22.284Z,994.80
2017-02-05T04:13:18.657Z,994.79
2017-02-05T04:18:15.707Z,994.80
2017-02-05T04:23:12.110Z,994.93
2017-02-05T04:28:08.539Z,994.85
2017-02-05T04:33:04.985Z,994.85
2017-02-05T04:38:01.967Z,994.89
2017-02-05T04:42:58.258Z,995.04
2017-02-05T04:47:54.644Z,995.00
2017-02-05T04:52:51.045Z,995.04
2017-02-05T04:57:47.394Z,995.05
2017-02-05T05:02:43.797Z,995.02
2017-02-05T05:07:40.278Z,995.04
2017-02-05T05:12:37.048Z,995.09
2017-02-05T05:17:33.459Z,995.15
2017-02-05T05:22:29.836Z,995.13
2017-02-05T05:27:26.206Z,995.09
2017-02-05T05:32:22.985Z,995.14
2017-02-05T05:37:20.619Z,995.18
2017-02-05T05:42:16.596Z,995.22
2017-02-05T05:47:14.093Z,995.22
2017-02-05T05:52:11.191Z,995.35
2017-02-05T05:57:07.380Z,995.26
2017-02-05T06:02:04.563Z,995.21
2017-02-05T06:07:00.989Z,995.24
2017-02-05T06:11:57.699Z,995.28
2017-02-05T06:16:53.926Z,995.32
2017-02-05T06:21:50.239Z,995.28
2017-02-05T06:26:46.534Z,995.23
2017-02-05T06:31:44.059Z,995.23
2017-02-05T06:36:39.981Z,995.23
2017-02-05T06:41:36.350Z,995.26
2017-02-05T06:46:32.873Z,995.32
2017-02-05T06:51:29.323Z,995.36
2017-02-05T06:56:25.877Z,995.34
2017-02-05T07:01:22.306Z,995.32
2017-02-05T07:06:18.879Z,995.34
2017-02-05T07:11:16.048Z,995.35
2017-02-05T07:16:12.497Z,995.36
2017-02-05T07:21:09.013Z,995.43
2017-02-05T07:26:05.471Z,995.57
2017-02-05T07:31:01.969Z,995.54
2017-02-05T07:35:58.368Z,995.61
2017-02-05T07:40:54.622Z,995.57
2017-02-05T07:45:51.062Z,995.67
2017-02-05T07:50:47.473Z,995.74
2017-02-05T07:55:43.983Z,995.81
2017-02-05T08:00:40.315Z,995.80
2017-02-05T08:05:36.802Z,995.80
2017-02-05T08:10:32.761Z,995.79
2017-02-05T08:15:29.372Z,995.78
2017-02-05T08:20:26.024Z,995.85
2017-02-05T08:25:22.446Z,995.76
2017-02-05T08:30:18.859Z,995.79
2017-02-05T08:35:15.926Z,995.90
2017-02-05T08:40:11.725Z,995.99
2017-02-05T08:45:08.431Z,996.00
2017-02-05T08:50:05.362Z,995.96
2017-02-05T08:55:01.919Z,996.01
2017-02-05T08:59:58.328Z,996.19
2017-02-05T09:04:54.912Z,996.17
2017-02-05T09:09:51.224Z,996.17
2017-02-05T09:14:47.915Z,996.17
2017-02-05T09:19:45.230Z,996.12
2017-02-05T09:24:41.752Z,996.12
2017-02-05T09:29:38.115Z,996.06
2017-02-05T09:34:34.331Z,996.06
2017-02-05T09:39:32.324Z,996.07
2017-02-05T09:44:29.443Z,996.19
2017-02-05T09:49:25.715Z,996.21
2017-02-05T09:54:22.323Z,996.20
2017-02-05T09:59:18.944Z,996.23
2017-02-05T10:04:15.650Z,996.24
2017-02-05T10:09:12.719Z,996.31
2017-02-05T10:14:09.280Z,996.35
2017-02-05T10:19:06.677Z,996.46
2017-02-05T10:24:03.221Z,996.32
2017-02-05T10:28:59.561Z,996.32
2017-02-05T10:33:56.116Z,996.30
2017-02-05T10:38:52.838Z,996.28
2017-02-05T10:43:49.348Z,996.29
2017-02-05T10:48:45.915Z,996.44
2017-02-05T10:53:42.531Z,996.44
2017-02-05T10:58:39.472Z,996.34
2017-02-05T11:03:35.892Z,996.29
2017-02-05T11:08:32.504Z,996.39
2017-02-05T11:13:29.053Z,996.38
2017-02-05T11:18:25.827Z,996.37
2017-02-05T11:23:22.730Z,996.34
2017-02-05T11:28:20.086Z,996.35
2017-02-05T11:33:16.508Z,996.16
2017-02-05T11:38:12.288Z,996.07
2017-02-05T11:43:09.279Z,996.07
2017-02-05T11:48:05.834Z,996.10
2017-02-05T11:53:02.205Z,996.19
2017-02-05T11:57:58.792Z,996.12
2017-02-05T12:02:55.850Z,996.31
2017-02-05T12:07:51.833Z,996.39
2017-02-05T12:12:48.872Z,996.34
2017-02-05T12:17:44.968Z,996.23
2017-02-05T12:22:41.002Z,996.34
2017-02-05T12:27:37.561Z,996.29
2017-02-05T12:32:33.989Z,996.46
2017-02-05T12:37:30.338Z,996.46
2017-02-05T12:42:27.711Z,996.52
2017-02-05T12:47:24.147Z,996.46
2017-02-05T12:52:20.797Z,996.48
2017-02-05T12:57:17.187Z,996.48
2017-02-05T13:02:13.954Z,996.51
2017-02-05T13:07:10.634Z,996.35
2017-02-05T13:12:07.332Z,996.42
2017-02-05T13:17:03.832Z,996.37
2017-02-05T13:22:00.083Z,996.35
2017-02-05T13:26:56.815Z,996.34
2017-02-05T13:31:53.269Z,996.32
2017-02-05T13:36:49.596Z,996.34
2017-02-05T13:41:45.906Z,996.37
2017-02-05T13:46:43.269Z,996.37
2017-02-05T13:51:39.729Z,996.48
2017-02-05T13:56:35.698Z,996.51
2017-02-05T14:01:31.905Z,996.63
2017-02-05T14:06:30.519Z,996.66
2017-02-05T14:11:25.978Z,996.71
2017-02-05T14:16:22.271Z,996.64
2017-02-05T14:21:18.401Z,996.66
2017-02-05T14:26:14.891Z,996.63
2017-02-05T14:31:11.342Z,996.59
2017-02-05T14:36:08.109Z,996.68
2017-02-05T14:41:04.509Z,996.78
2017-02-05T14:46:00.865Z,996.78
2017-02-05T14:50:58.071Z,996.87
2017-02-05T14:55:54.480Z,996.95
2017-02-05T15:00:50.903Z,997.05
2017-02-05T15:05:47.270Z,997.06
2017-02-05T15:10:43.785Z,997.10
2017-02-05T15:15:40.467Z,997.16
2017-02-05T15:20:36.991Z,997.24
2017-02-05T15:25:33.488Z,997.32
2017-02-05T15:30:29.912Z,997.40
2017-02-05T15:35:26.222Z,997.32
2017-02-05T15:40:22.844Z,997.50
2017-02-05T15:45:19.750Z,997.57
2017-02-05T15:50:16.015Z,997.68
2017-02-05T15:55:12.414Z,997.70
2017-02-05T16:00:08.966Z,997.77
2017-02-05T16:05:05.599Z,997.85
2017-02-05T16:10:01.944Z,997.87
2017-02-05T16:14:58.846Z,997.94
2017-02-05T16:19:54.780Z,997.97
2017-02-05T16:24:51.360Z,997.95
2017-02-05T16:29:47.722Z,997.90
2017-02-05T16:34:44.759Z,997.80
2017-02-05T16:39:41.121Z,998.01
2017-02-05T16:44:38.277Z,998.06
2017-02-05T16:49:34.577Z,998.08
2017-02-05T16:54:31.032Z,998.11
2017-02-05T16:59:27.353Z,998.18
2017-02-05T17:04:24.310Z,998.42
2017-02-05T17:09:20.855Z,998.39
2017-02-05T17:14:16.919Z,998.57
2017-02-05T17:19:14.410Z,998.64
2017-02-05T17:24:11.200Z,998.61
2017-02-05T17:29:07.434Z,998.71
2017-02-05T17:34:03.661Z,998.68
2017-02-05T17:39:00.331Z,998.72
2017-02-05T17:43:56.659Z,998.82
2017-02-05T17:48:53.380Z,998.86
2017-02-05T17:53:49.518Z,998.94
2017-02-05T17:58:45.880Z,998.92
2017-02-05T18:03:42.103Z,999.03
2017-02-05T18:08:38.560Z,999.04
2017-02-05T18:13:36.101Z,999.05
2017-02-05T18:18:32.520Z,999.14
2017-02-05T18:23:29.097Z,999.26
2017-02-05T18:28:25.260Z,999.20
2017-02-05T18:33:21.561Z,999.27
2017-02-05T18:38:17.927Z,999.36
2017-02-05T18:43:14.263Z,999.49
2017-02-05T18:48:10.370Z,999.49
2017-02-05T18:53:08.032Z,999.52
2017-02-05T18:58:03.821Z,999.65
2017-02-05T19:03:00.102Z,999.64
2017-02-05T19:07:56.602Z,999.73
2017-02-05T19:12:53.003Z,999.81
2017-02-05T19:17:49.177Z,999.97
2017-02-05T19:22:45.935Z,999.94
2017-02-05T19:27:41.987Z,999.99
2017-02-05T19:32:38.169Z,1000.13
2017-02-05T19:37:34.468Z,1000.18
2017-02-05T19:42:30.913Z,1000.17
2017-02-05T19:47:28.451Z,1000.12
2017-02-05T19:52:24.592Z,1000.27
2017-02-05T19:57:21.037Z,1000.44
2017-02-05T20:02:17.562Z,1000.47
2017-02-05T20:07:14.809Z,1000.45
2017-02-05T20:12:10.851Z,1000.60
2017-02-05T20:17:07.828Z,1000.63
2017-02-05T20:22:04.077Z,1000.72
2017-02-05T20:27:00.670Z,1000.78
2017-02-05T20:31:56.703Z,1000.88
2017-02-05T20:36:53.009Z,1000.96
2017-02-05T20:41:49.231Z,1001.11
2017-02-05T20:46:47.163Z,1001.08
2017-02-05T20:51:44.248Z,1001.20
2017-02-05T20:56:40.261Z,1001.40
2017-02-05T21:01:36.711Z,1001.54
2017-02-05T21:06:33.812Z,1001.63
2017-02-05T21:11:32.528Z,1001.74
2017-02-05T21:16:28.388Z,1001.76
2017-02-05T21:21:24.669Z,1001.85
2017-02-05T21:26:21.112Z,1001.95
2017-02-05T21:31:17.673Z,1002.00
2017-02-05T21:36:14.093Z,1002.07
2017-02-05T21:41:10.429Z,1002.10
2017-02-05T21:46:06.581Z,1002.18
2017-02-05T21:51:02.870Z,1002.23
2017-02-05T21:55:59.378Z,1002.31
2017-02-05T22:00:55.698Z,1002.33
2017-02-05T22:05:51.830Z,1002.39
2017-02-05T22:10:48.357Z,1002.39
2017-02-05T22:15:45.093Z,1002.46
2017-02-05T22:20:41.629Z,1002.53
2017-02-05T22:25:38.118Z,1002.58
2017-02-05T22:30:34.385Z,1002.62
2017-02-05T22:35:30.699Z,1002.72
2017-02-05T22:40:26.767Z,1002.78
2017-02-05T22:45:23.096Z,1002.84
2017-02-05T22:50:19.512Z,1002.95
2017-02-05T22:55:15.850Z,1002.92
2017-02-05T23:00:12.547Z,1003.04
2017-02-05T23:05:08.885Z,1003.09
2017-02-05T23:10:05.036Z,1003.15
2017-02-05T23:15:01.477Z,1003.19
2017-02-05T23:19:57.984Z,1003.25
2017-02-05T23:24:54.299Z,1003.32
2017-02-05T23:29:50.809Z,1003.25
2017-02-05T23:34:47.116Z,1003.32
2017-02-05T23:39:43.395Z,1003.38
2017-02-05T23:44:39.756Z,1003.41
2017-02-05T23:49:35.649Z,1003.39
2017-02-05T23:54:31.855Z,1003.48
2017-02-05T23:59:28.085Z,1003.51
